sensor_id;sensor_type;location;lat;lon;timestamp;P1;durP1;ratioP1;P2;durP2;ratioP2
32228;SDS011;18717;48.034;11.186;2023-06-22T00:00:25;15.20;;;13.70;;
32228;SDS011;18717;48.034;11.186;2023-06-22T00:02:53;16.35;;;14.73;;
32228;SDS011;18717;48.034;11.186;2023-06-22T00:05:23;16.73;;;14.98;;
32228;SDS011;18717;48.034;11.186;2023-06-22T00:07:50;16.08;;;14.50;;
32228;SDS011;18717;48.034;11.186;2023-06-22T00:10:18;14.43;;;13.13;;
32228;SDS011;18717;48.034;11.186;2023-06-22T00:12:46;16.40;;;14.73;;
32228;SDS011;18717;48.034;11.186;2023-06-22T00:15:13;16.05;;;14.75;;
32228;SDS011;18717;48.034;11.186;2023-06-22T00:17:41;15.80;;;14.18;;
32228;SDS011;18717;48.034;11.186;2023-06-22T00:20:09;16.83;;;14.45;;
32228;SDS011;18717;48.034;11.186;2023-06-22T00:22:39;16.10;;;14.50;;
32228;SDS011;18717;48.034;11.186;2023-06-22T00:25:07;16.50;;;14.68;;
32228;SDS011;18717;48.034;11.186;2023-06-22T00:27:35;17.35;;;14.77;;
32228;SDS011;18717;48.034;11.186;2023-06-22T00:30:03;15.77;;;14.07;;
32228;SDS011;18717;48.034;11.186;2023-06-22T00:32:31;19.50;;;15.13;;
32228;SDS011;18717;48.034;11.186;2023-06-22T00:34:59;16.00;;;14.65;;
32228;SDS011;18717;48.034;11.186;2023-06-22T00:37:27;16.70;;;14.98;;
32228;SDS011;18717;48.034;11.186;2023-06-22T00:39:57;16.98;;;15.50;;
32228;SDS011;18717;48.034;11.186;2023-06-22T00:42:25;16.73;;;15.10;;
32228;SDS011;18717;48.034;11.186;2023-06-22T00:44:53;17.05;;;15.18;;
32228;SDS011;18717;48.034;11.186;2023-06-22T00:47:20;20.55;;;14.95;;
32228;SDS011;18717;48.034;11.186;2023-06-22T00:49:49;16.42;;;14.93;;
32228;SDS011;18717;48.034;11.186;2023-06-22T00:52:18;17.08;;;15.43;;
32228;SDS011;18717;48.034;11.186;2023-06-22T00:54:47;16.42;;;14.45;;
32228;SDS011;18717;48.034;11.186;2023-06-22T00:57:18;17.40;;;15.52;;
32228;SDS011;18717;48.034;11.186;2023-06-22T00:59:46;17.55;;;15.73;;
32228;SDS011;18717;48.034;11.186;2023-06-22T01:02:15;24.83;;;16.52;;
32228;SDS011;18717;48.034;11.186;2023-06-22T01:04:43;20.60;;;15.65;;
32228;SDS011;18717;48.034;11.186;2023-06-22T01:07:13;18.67;;;15.45;;
32228;SDS011;18717;48.034;11.186;2023-06-22T01:09:49;18.70;;;15.18;;
32228;SDS011;18717;48.034;11.186;2023-06-22T01:12:23;19.58;;;16.30;;
32228;SDS011;18717;48.034;11.186;2023-06-22T01:14:53;17.27;;;15.52;;
32228;SDS011;18717;48.034;11.186;2023-06-22T01:17:23;21.42;;;15.95;;
32228;SDS011;18717;48.034;11.186;2023-06-22T01:19:51;21.52;;;16.60;;
32228;SDS011;18717;48.034;11.186;2023-06-22T01:22:23;17.80;;;16.00;;
32228;SDS011;18717;48.034;11.186;2023-06-22T01:24:54;18.50;;;16.00;;
32228;SDS011;18717;48.034;11.186;2023-06-22T01:27:32;18.10;;;15.52;;
32228;SDS011;18717;48.034;11.186;2023-06-22T01:30:05;17.02;;;15.40;;
32228;SDS011;18717;48.034;11.186;2023-06-22T01:32:34;20.23;;;14.82;;
32228;SDS011;18717;48.034;11.186;2023-06-22T01:35:04;16.70;;;15.10;;
32228;SDS011;18717;48.034;11.186;2023-06-22T01:37:34;23.95;;;15.55;;
32228;SDS011;18717;48.034;11.186;2023-06-22T01:40:02;17.17;;;15.70;;
32228;SDS011;18717;48.034;11.186;2023-06-22T01:42:32;16.38;;;14.73;;
32228;SDS011;18717;48.034;11.186;2023-06-22T01:45:00;19.25;;;15.43;;
32228;SDS011;18717;48.034;11.186;2023-06-22T01:47:29;17.65;;;15.73;;
32228;SDS011;18717;48.034;11.186;2023-06-22T01:49:57;22.50;;;15.35;;
32228;SDS011;18717;48.034;11.186;2023-06-22T01:52:25;24.05;;;15.57;;
32228;SDS011;18717;48.034;11.186;2023-06-22T01:54:52;19.23;;;16.55;;
32228;SDS011;18717;48.034;11.186;2023-06-22T01:57:20;20.08;;;15.45;;
32228;SDS011;18717;48.034;11.186;2023-06-22T01:59:48;19.30;;;16.08;;
32228;SDS011;18717;48.034;11.186;2023-06-22T02:02:20;16.67;;;15.05;;
32228;SDS011;18717;48.034;11.186;2023-06-22T02:04:55;18.95;;;15.75;;
32228;SDS011;18717;48.034;11.186;2023-06-22T02:07:26;17.98;;;16.10;;
32228;SDS011;18717;48.034;11.186;2023-06-22T02:09:58;17.88;;;16.10;;
32228;SDS011;18717;48.034;11.186;2023-06-22T02:12:26;17.25;;;15.30;;
32228;SDS011;18717;48.034;11.186;2023-06-22T02:14:55;20.90;;;16.13;;
32228;SDS011;18717;48.034;11.186;2023-06-22T02:17:24;20.77;;;15.50;;
32228;SDS011;18717;48.034;11.186;2023-06-22T02:19:55;18.50;;;16.27;;
32228;SDS011;18717;48.034;11.186;2023-06-22T02:22:22;19.30;;;16.13;;
32228;SDS011;18717;48.034;11.186;2023-06-22T02:24:51;17.98;;;16.08;;
32228;SDS011;18717;48.034;11.186;2023-06-22T02:27:19;20.38;;;17.95;;
32228;SDS011;18717;48.034;11.186;2023-06-22T02:29:46;23.52;;;17.77;;
32228;SDS011;18717;48.034;11.186;2023-06-22T02:32:14;17.50;;;15.55;;
32228;SDS011;18717;48.034;11.186;2023-06-22T02:34:43;23.55;;;16.55;;
32228;SDS011;18717;48.034;11.186;2023-06-22T02:37:15;18.67;;;16.65;;
32228;SDS011;18717;48.034;11.186;2023-06-22T02:39:42;21.13;;;16.90;;
32228;SDS011;18717;48.034;11.186;2023-06-22T02:42:10;18.67;;;16.98;;
32228;SDS011;18717;48.034;11.186;2023-06-22T02:44:38;18.20;;;15.93;;
32228;SDS011;18717;48.034;11.186;2023-06-22T02:47:06;18.30;;;16.60;;
32228;SDS011;18717;48.034;11.186;2023-06-22T02:49:35;17.55;;;15.73;;
32228;SDS011;18717;48.034;11.186;2023-06-22T02:52:02;24.52;;;17.38;;
32228;SDS011;18717;48.034;11.186;2023-06-22T02:54:32;20.85;;;17.17;;
32228;SDS011;18717;48.034;11.186;2023-06-22T02:57:00;21.23;;;17.25;;
32228;SDS011;18717;48.034;11.186;2023-06-22T02:59:29;24.70;;;15.85;;
32228;SDS011;18717;48.034;11.186;2023-06-22T03:01:59;18.27;;;16.52;;
32228;SDS011;18717;48.034;11.186;2023-06-22T03:04:29;17.80;;;16.30;;
32228;SDS011;18717;48.034;11.186;2023-06-22T03:06:57;20.45;;;16.73;;
32228;SDS011;18717;48.034;11.186;2023-06-22T03:09:28;18.10;;;16.35;;
32228;SDS011;18717;48.034;11.186;2023-06-22T03:11:57;25.48;;;17.52;;
32228;SDS011;18717;48.034;11.186;2023-06-22T03:14:25;19.55;;;16.15;;
32228;SDS011;18717;48.034;11.186;2023-06-22T03:16:52;18.33;;;16.30;;
32228;SDS011;18717;48.034;11.186;2023-06-22T03:19:20;24.45;;;17.38;;
32228;SDS011;18717;48.034;11.186;2023-06-22T03:21:48;20.60;;;14.98;;
32228;SDS011;18717;48.034;11.186;2023-06-22T03:24:16;18.13;;;15.70;;
32228;SDS011;18717;48.034;11.186;2023-06-22T03:26:43;19.23;;;17.58;;
32228;SDS011;18717;48.034;11.186;2023-06-22T03:29:14;23.15;;;16.83;;
32228;SDS011;18717;48.034;11.186;2023-06-22T03:31:42;21.92;;;16.80;;
32228;SDS011;18717;48.034;11.186;2023-06-22T03:34:09;20.25;;;15.98;;
32228;SDS011;18717;48.034;11.186;2023-06-22T03:36:37;20.27;;;16.15;;
32228;SDS011;18717;48.034;11.186;2023-06-22T03:39:05;27.98;;;16.67;;
32228;SDS011;18717;48.034;11.186;2023-06-22T03:41:33;25.30;;;17.13;;
32228;SDS011;18717;48.034;11.186;2023-06-22T03:44:00;20.27;;;15.93;;
32228;SDS011;18717;48.034;11.186;2023-06-22T03:46:29;19.50;;;16.67;;
32228;SDS011;18717;48.034;11.186;2023-06-22T03:48:57;24.30;;;17.77;;
32228;SDS011;18717;48.034;11.186;2023-06-22T03:51:25;21.23;;;17.10;;
32228;SDS011;18717;48.034;11.186;2023-06-22T03:53:52;19.88;;;17.05;;
32228;SDS011;18717;48.034;11.186;2023-06-22T03:56:20;17.65;;;15.93;;
32228;SDS011;18717;48.034;11.186;2023-06-22T03:58:48;17.92;;;16.17;;
32228;SDS011;18717;48.034;11.186;2023-06-22T04:01:16;18.40;;;16.52;;
32228;SDS011;18717;48.034;11.186;2023-06-22T04:03:45;21.90;;;16.05;;
32228;SDS011;18717;48.034;11.186;2023-06-22T04:06:15;18.60;;;16.80;;
32228;SDS011;18717;48.034;11.186;2023-06-22T04:08:44;24.20;;;16.55;;
32228;SDS011;18717;48.034;11.186;2023-06-22T04:11:14;17.73;;;15.87;;
32228;SDS011;18717;48.034;11.186;2023-06-22T04:13:42;24.52;;;19.50;;
32228;SDS011;18717;48.034;11.186;2023-06-22T04:16:09;20.67;;;16.20;;
32228;SDS011;18717;48.034;11.186;2023-06-22T04:18:37;18.33;;;15.93;;
32228;SDS011;18717;48.034;11.186;2023-06-22T04:21:06;21.73;;;16.08;;
32228;SDS011;18717;48.034;11.186;2023-06-22T04:23:34;19.15;;;16.23;;
32228;SDS011;18717;48.034;11.186;2023-06-22T04:26:01;19.77;;;16.20;;
32228;SDS011;18717;48.034;11.186;2023-06-22T04:28:29;21.58;;;15.80;;
32228;SDS011;18717;48.034;11.186;2023-06-22T04:34:17;21.75;;;15.50;;
32228;SDS011;18717;48.034;11.186;2023-06-22T04:36:46;16.80;;;15.20;;
32228;SDS011;18717;48.034;11.186;2023-06-22T04:39:14;18.20;;;15.38;;
32228;SDS011;18717;48.034;11.186;2023-06-22T04:41:42;17.67;;;15.82;;
32228;SDS011;18717;48.034;11.186;2023-06-22T04:44:10;17.33;;;15.68;;
32228;SDS011;18717;48.034;11.186;2023-06-22T04:46:39;17.58;;;15.75;;
32228;SDS011;18717;48.034;11.186;2023-06-22T04:49:07;17.85;;;16.00;;
32228;SDS011;18717;48.034;11.186;2023-06-22T04:51:37;24.60;;;17.60;;
32228;SDS011;18717;48.034;11.186;2023-06-22T04:54:08;20.75;;;16.90;;
32228;SDS011;18717;48.034;11.186;2023-06-22T04:56:36;21.55;;;17.02;;
32228;SDS011;18717;48.034;11.186;2023-06-22T04:59:07;17.83;;;15.98;;
32228;SDS011;18717;48.034;11.186;2023-06-22T05:04:06;20.63;;;16.73;;
32228;SDS011;18717;48.034;11.186;2023-06-22T05:06:35;18.25;;;16.45;;
32228;SDS011;18717;48.034;11.186;2023-06-22T05:09:07;21.50;;;16.92;;
32228;SDS011;18717;48.034;11.186;2023-06-22T05:11:35;20.10;;;17.70;;
32228;SDS011;18717;48.034;11.186;2023-06-22T05:14:02;19.60;;;16.98;;
32228;SDS011;18717;48.034;11.186;2023-06-22T05:16:30;21.67;;;16.65;;
32228;SDS011;18717;48.034;11.186;2023-06-22T05:18:58;22.40;;;16.90;;
32228;SDS011;18717;48.034;11.186;2023-06-22T05:21:26;20.95;;;17.67;;
32228;SDS011;18717;48.034;11.186;2023-06-22T05:23:54;19.52;;;17.63;;
32228;SDS011;18717;48.034;11.186;2023-06-22T05:26:23;22.55;;;16.73;;
32228;SDS011;18717;48.034;11.186;2023-06-22T05:28:51;19.98;;;17.15;;
32228;SDS011;18717;48.034;11.186;2023-06-22T05:31:19;19.98;;;17.77;;
32228;SDS011;18717;48.034;11.186;2023-06-22T05:33:47;24.58;;;17.90;;
32228;SDS011;18717;48.034;11.186;2023-06-22T05:36:16;19.95;;;17.38;;
32228;SDS011;18717;48.034;11.186;2023-06-22T05:38:46;25.67;;;18.70;;
32228;SDS011;18717;48.034;11.186;2023-06-22T05:41:13;23.88;;;18.73;;
32228;SDS011;18717;48.034;11.186;2023-06-22T05:43:42;20.25;;;18.38;;
32228;SDS011;18717;48.034;11.186;2023-06-22T05:46:10;27.33;;;17.67;;
32228;SDS011;18717;48.034;11.186;2023-06-22T05:48:39;22.90;;;17.55;;
32228;SDS011;18717;48.034;11.186;2023-06-22T05:51:06;22.35;;;17.80;;
32228;SDS011;18717;48.034;11.186;2023-06-22T05:53:34;20.85;;;18.25;;
32228;SDS011;18717;48.034;11.186;2023-06-22T05:56:02;22.35;;;17.55;;
32228;SDS011;18717;48.034;11.186;2023-06-22T05:58:30;20.58;;;18.42;;
32228;SDS011;18717;48.034;11.186;2023-06-22T06:00:59;23.95;;;18.02;;
32228;SDS011;18717;48.034;11.186;2023-06-22T06:03:27;20.60;;;18.48;;
32228;SDS011;18717;48.034;11.186;2023-06-22T06:05:55;19.42;;;17.60;;
32228;SDS011;18717;48.034;11.186;2023-06-22T06:08:22;21.38;;;19.05;;
32228;SDS011;18717;48.034;11.186;2023-06-22T06:10:50;22.23;;;19.67;;
32228;SDS011;18717;48.034;11.186;2023-06-22T06:13:19;21.60;;;19.23;;
32228;SDS011;18717;48.034;11.186;2023-06-22T06:15:46;22.63;;;18.85;;
32228;SDS011;18717;48.034;11.186;2023-06-22T06:18:16;22.00;;;17.90;;
32228;SDS011;18717;48.034;11.186;2023-06-22T06:20:43;20.92;;;17.23;;
32228;SDS011;18717;48.034;11.186;2023-06-22T06:23:11;21.27;;;18.30;;
32228;SDS011;18717;48.034;11.186;2023-06-22T06:25:39;24.75;;;18.25;;
32228;SDS011;18717;48.034;11.186;2023-06-22T06:28:06;24.85;;;19.20;;
32228;SDS011;18717;48.034;11.186;2023-06-22T06:30:34;24.25;;;18.90;;
32228;SDS011;18717;48.034;11.186;2023-06-22T06:33:03;22.67;;;18.98;;
32228;SDS011;18717;48.034;11.186;2023-06-22T06:35:36;24.05;;;18.33;;
32228;SDS011;18717;48.034;11.186;2023-06-22T06:38:04;22.70;;;19.00;;
32228;SDS011;18717;48.034;11.186;2023-06-22T06:40:32;24.20;;;19.40;;
32228;SDS011;18717;48.034;11.186;2023-06-22T06:43:00;20.52;;;18.25;;
32228;SDS011;18717;48.034;11.186;2023-06-22T06:45:28;28.73;;;19.42;;
32228;SDS011;18717;48.034;11.186;2023-06-22T06:47:57;22.95;;;19.23;;
32228;SDS011;18717;48.034;11.186;2023-06-22T06:50:25;20.30;;;18.35;;
32228;SDS011;18717;48.034;11.186;2023-06-22T06:52:54;21.80;;;19.10;;
32228;SDS011;18717;48.034;11.186;2023-06-22T06:55:25;21.00;;;19.20;;
32228;SDS011;18717;48.034;11.186;2023-06-22T06:57:53;22.15;;;19.90;;
32228;SDS011;18717;48.034;11.186;2023-06-22T07:00:20;25.17;;;17.67;;
32228;SDS011;18717;48.034;11.186;2023-06-22T07:02:48;22.92;;;19.25;;
32228;SDS011;18717;48.034;11.186;2023-06-22T07:05:16;25.15;;;19.23;;
32228;SDS011;18717;48.034;11.186;2023-06-22T07:07:44;28.85;;;20.50;;
32228;SDS011;18717;48.034;11.186;2023-06-22T07:10:13;26.73;;;20.17;;
32228;SDS011;18717;48.034;11.186;2023-06-22T07:12:41;27.20;;;17.75;;
32228;SDS011;18717;48.034;11.186;2023-06-22T07:15:09;23.15;;;18.83;;
32228;SDS011;18717;48.034;11.186;2023-06-22T07:17:39;22.98;;;19.48;;
32228;SDS011;18717;48.034;11.186;2023-06-22T07:20:08;21.00;;;18.30;;
32228;SDS011;18717;48.034;11.186;2023-06-22T07:22:38;26.15;;;18.35;;
32228;SDS011;18717;48.034;11.186;2023-06-22T07:25:06;22.45;;;19.45;;
32228;SDS011;18717;48.034;11.186;2023-06-22T07:27:38;26.55;;;20.30;;
32228;SDS011;18717;48.034;11.186;2023-06-22T07:30:09;27.67;;;19.35;;
32228;SDS011;18717;48.034;11.186;2023-06-22T07:32:39;24.00;;;20.20;;
32228;SDS011;18717;48.034;11.186;2023-06-22T07:35:08;22.73;;;19.75;;
32228;SDS011;18717;48.034;11.186;2023-06-22T07:37:36;21.98;;;19.75;;
32228;SDS011;18717;48.034;11.186;2023-06-22T07:40:04;24.63;;;19.38;;
32228;SDS011;18717;48.034;11.186;2023-06-22T07:42:34;24.90;;;19.55;;
32228;SDS011;18717;48.034;11.186;2023-06-22T07:45:03;22.65;;;19.88;;
32228;SDS011;18717;48.034;11.186;2023-06-22T07:47:32;28.83;;;19.98;;
32228;SDS011;18717;48.034;11.186;2023-06-22T07:50:02;29.55;;;20.50;;
32228;SDS011;18717;48.034;11.186;2023-06-22T07:52:30;26.50;;;20.27;;
32228;SDS011;18717;48.034;11.186;2023-06-22T07:54:59;27.95;;;19.77;;
32228;SDS011;18717;48.034;11.186;2023-06-22T07:57:26;23.10;;;20.05;;
32228;SDS011;18717;48.034;11.186;2023-06-22T07:59:59;21.98;;;19.50;;
32228;SDS011;18717;48.034;11.186;2023-06-22T08:02:28;23.40;;;19.27;;
32228;SDS011;18717;48.034;11.186;2023-06-22T08:04:56;24.15;;;20.00;;
32228;SDS011;18717;48.034;11.186;2023-06-22T08:07:40;23.25;;;18.40;;
32228;SDS011;18717;48.034;11.186;2023-06-22T08:10:12;22.30;;;19.85;;
32228;SDS011;18717;48.034;11.186;2023-06-22T08:12:40;22.20;;;19.83;;
32228;SDS011;18717;48.034;11.186;2023-06-22T08:15:08;22.73;;;19.25;;
32228;SDS011;18717;48.034;11.186;2023-06-22T08:17:38;28.05;;;20.20;;
32228;SDS011;18717;48.034;11.186;2023-06-22T08:20:06;23.13;;;20.63;;
32228;SDS011;18717;48.034;11.186;2023-06-22T08:22:38;22.55;;;20.42;;
32228;SDS011;18717;48.034;11.186;2023-06-22T08:25:06;22.58;;;20.20;;
32228;SDS011;18717;48.034;11.186;2023-06-22T08:27:35;25.02;;;20.90;;
32228;SDS011;18717;48.034;11.186;2023-06-22T08:30:04;23.35;;;21.13;;
32228;SDS011;18717;48.034;11.186;2023-06-22T08:32:32;26.88;;;20.10;;
32228;SDS011;18717;48.034;11.186;2023-06-22T08:35:02;23.98;;;19.65;;
32228;SDS011;18717;48.034;11.186;2023-06-22T08:37:29;22.95;;;20.67;;
32228;SDS011;18717;48.034;11.186;2023-06-22T08:40:03;24.88;;;20.50;;
32228;SDS011;18717;48.034;11.186;2023-06-22T08:42:32;27.20;;;20.88;;
32228;SDS011;18717;48.034;11.186;2023-06-22T08:44:59;23.42;;;21.05;;
32228;SDS011;18717;48.034;11.186;2023-06-22T08:47:27;23.25;;;20.98;;
32228;SDS011;18717;48.034;11.186;2023-06-22T08:49:55;26.45;;;21.20;;
32228;SDS011;18717;48.034;11.186;2023-06-22T08:52:24;22.95;;;19.50;;
32228;SDS011;18717;48.034;11.186;2023-06-22T08:54:52;26.67;;;20.95;;
32228;SDS011;18717;48.034;11.186;2023-06-22T08:57:20;26.35;;;19.98;;
32228;SDS011;18717;48.034;11.186;2023-06-22T08:59:48;24.73;;;20.10;;
32228;SDS011;18717;48.034;11.186;2023-06-22T09:02:18;31.13;;;19.73;;
32228;SDS011;18717;48.034;11.186;2023-06-22T09:04:46;23.60;;;20.60;;
32228;SDS011;18717;48.034;11.186;2023-06-22T09:07:15;24.75;;;19.98;;
32228;SDS011;18717;48.034;11.186;2023-06-22T09:09:49;26.60;;;21.45;;
32228;SDS011;18717;48.034;11.186;2023-06-22T09:12:17;29.50;;;21.58;;
32228;SDS011;18717;48.034;11.186;2023-06-22T09:14:46;23.75;;;21.20;;
32228;SDS011;18717;48.034;11.186;2023-06-22T09:17:14;26.98;;;20.80;;
32228;SDS011;18717;48.034;11.186;2023-06-22T09:19:41;22.85;;;20.50;;
32228;SDS011;18717;48.034;11.186;2023-06-22T09:22:09;26.67;;;22.13;;
32228;SDS011;18717;48.034;11.186;2023-06-22T09:24:37;24.58;;;21.50;;
32228;SDS011;18717;48.034;11.186;2023-06-22T09:27:06;24.52;;;21.52;;
32228;SDS011;18717;48.034;11.186;2023-06-22T09:29:33;26.27;;;20.40;;
32228;SDS011;18717;48.034;11.186;2023-06-22T09:32:01;21.80;;;19.20;;
32228;SDS011;18717;48.034;11.186;2023-06-22T09:34:29;31.67;;;20.20;;
32228;SDS011;18717;48.034;11.186;2023-06-22T09:36:57;28.27;;;20.50;;
32228;SDS011;18717;48.034;11.186;2023-06-22T09:39:26;25.65;;;20.23;;
32228;SDS011;18717;48.034;11.186;2023-06-22T09:41:54;24.90;;;20.70;;
32228;SDS011;18717;48.034;11.186;2023-06-22T09:44:23;27.92;;;21.25;;
32228;SDS011;18717;48.034;11.186;2023-06-22T09:46:51;28.88;;;21.95;;
32228;SDS011;18717;48.034;11.186;2023-06-22T09:49:18;22.63;;;20.58;;
32228;SDS011;18717;48.034;11.186;2023-06-22T09:52:06;23.52;;;21.02;;
32228;SDS011;18717;48.034;11.186;2023-06-22T09:54:34;24.98;;;21.17;;
32228;SDS011;18717;48.034;11.186;2023-06-22T09:57:02;27.13;;;20.17;;
32228;SDS011;18717;48.034;11.186;2023-06-22T09:59:31;28.35;;;20.13;;
32228;SDS011;18717;48.034;11.186;2023-06-22T10:01:59;27.23;;;21.38;;
32228;SDS011;18717;48.034;11.186;2023-06-22T10:04:27;22.92;;;20.70;;
32228;SDS011;18717;48.034;11.186;2023-06-22T10:06:55;23.02;;;20.70;;
32228;SDS011;18717;48.034;11.186;2023-06-22T10:09:23;27.13;;;21.45;;
32228;SDS011;18717;48.034;11.186;2023-06-22T10:11:51;25.30;;;20.13;;
32228;SDS011;18717;48.034;11.186;2023-06-22T10:14:18;28.17;;;21.50;;
32228;SDS011;18717;48.034;11.186;2023-06-22T10:16:47;25.52;;;19.98;;
32228;SDS011;18717;48.034;11.186;2023-06-22T10:19:15;24.42;;;20.33;;
32228;SDS011;18717;48.034;11.186;2023-06-22T10:21:43;27.17;;;21.23;;
32228;SDS011;18717;48.034;11.186;2023-06-22T10:24:10;23.75;;;21.20;;
32228;SDS011;18717;48.034;11.186;2023-06-22T10:26:38;23.23;;;20.23;;
32228;SDS011;18717;48.034;11.186;2023-06-22T10:29:06;26.63;;;21.33;;
32228;SDS011;18717;48.034;11.186;2023-06-22T10:31:43;23.60;;;21.27;;
32228;SDS011;18717;48.034;11.186;2023-06-22T10:34:12;22.38;;;20.02;;
32228;SDS011;18717;48.034;11.186;2023-06-22T10:36:40;25.73;;;20.48;;
32228;SDS011;18717;48.034;11.186;2023-06-22T10:39:08;27.88;;;19.75;;
32228;SDS011;18717;48.034;11.186;2023-06-22T10:41:35;28.52;;;21.10;;
32228;SDS011;18717;48.034;11.186;2023-06-22T10:44:03;23.73;;;21.48;;
32228;SDS011;18717;48.034;11.186;2023-06-22T10:46:31;27.67;;;20.88;;
32228;SDS011;18717;48.034;11.186;2023-06-22T10:48:59;24.88;;;19.83;;
32228;SDS011;18717;48.034;11.186;2023-06-22T10:51:28;24.10;;;20.60;;
32228;SDS011;18717;48.034;11.186;2023-06-22T10:53:57;26.53;;;20.10;;
32228;SDS011;18717;48.034;11.186;2023-06-22T10:56:25;23.40;;;20.95;;
32228;SDS011;18717;48.034;11.186;2023-06-22T10:58:52;23.02;;;20.27;;
32228;SDS011;18717;48.034;11.186;2023-06-22T11:01:20;22.70;;;19.98;;
32228;SDS011;18717;48.034;11.186;2023-06-22T11:04:08;24.80;;;20.60;;
32228;SDS011;18717;48.034;11.186;2023-06-22T11:06:37;29.73;;;21.77;;
32228;SDS011;18717;48.034;11.186;2023-06-22T11:09:05;23.52;;;20.95;;
32228;SDS011;18717;48.034;11.186;2023-06-22T11:11:37;26.70;;;20.05;;
32228;SDS011;18717;48.034;11.186;2023-06-22T11:14:05;22.42;;;20.15;;
32228;SDS011;18717;48.034;11.186;2023-06-22T11:16:32;23.17;;;21.10;;
32228;SDS011;18717;48.034;11.186;2023-06-22T11:19:01;26.88;;;20.77;;
32228;SDS011;18717;48.034;11.186;2023-06-22T11:21:29;34.50;;;20.95;;
32228;SDS011;18717;48.034;11.186;2023-06-22T11:23:58;31.42;;;20.70;;
32228;SDS011;18717;48.034;11.186;2023-06-22T11:26:26;27.08;;;19.80;;
32228;SDS011;18717;48.034;11.186;2023-06-22T11:28:54;22.00;;;19.95;;
32228;SDS011;18717;48.034;11.186;2023-06-22T11:33:52;28.33;;;21.17;;
32228;SDS011;18717;48.034;11.186;2023-06-22T11:36:20;31.25;;;20.83;;
32228;SDS011;18717;48.034;11.186;2023-06-22T11:38:48;22.55;;;20.02;;
32228;SDS011;18717;48.034;11.186;2023-06-22T11:41:17;29.05;;;19.90;;
32228;SDS011;18717;48.034;11.186;2023-06-22T11:43:45;31.42;;;21.27;;
32228;SDS011;18717;48.034;11.186;2023-06-22T11:46:12;26.17;;;21.38;;
32228;SDS011;18717;48.034;11.186;2023-06-22T11:48:40;22.67;;;18.98;;
32228;SDS011;18717;48.034;11.186;2023-06-22T11:51:08;26.80;;;19.50;;
32228;SDS011;18717;48.034;11.186;2023-06-22T11:53:36;28.27;;;22.05;;
32228;SDS011;18717;48.034;11.186;2023-06-22T11:56:04;28.42;;;20.45;;
32228;SDS011;18717;48.034;11.186;2023-06-22T11:58:35;31.35;;;20.30;;
32228;SDS011;18717;48.034;11.186;2023-06-22T12:01:02;25.50;;;20.58;;
32228;SDS011;18717;48.034;11.186;2023-06-22T12:03:31;26.77;;;21.17;;
32228;SDS011;18717;48.034;11.186;2023-06-22T12:05:59;27.17;;;20.83;;
32228;SDS011;18717;48.034;11.186;2023-06-22T12:08:27;29.13;;;20.67;;
32228;SDS011;18717;48.034;11.186;2023-06-22T12:10:54;25.65;;;19.08;;
32228;SDS011;18717;48.034;11.186;2023-06-22T12:13:22;21.92;;;18.90;;
32228;SDS011;18717;48.034;11.186;2023-06-22T12:15:51;30.15;;;20.30;;
32228;SDS011;18717;48.034;11.186;2023-06-22T12:18:19;28.48;;;20.25;;
32228;SDS011;18717;48.034;11.186;2023-06-22T12:20:47;26.73;;;20.75;;
32228;SDS011;18717;48.034;11.186;2023-06-22T12:23:15;26.25;;;21.25;;
32228;SDS011;18717;48.034;11.186;2023-06-22T12:25:44;21.67;;;19.65;;
32228;SDS011;18717;48.034;11.186;2023-06-22T12:28:12;25.48;;;20.08;;
32228;SDS011;18717;48.034;11.186;2023-06-22T12:30:40;27.83;;;20.05;;
32228;SDS011;18717;48.034;11.186;2023-06-22T12:33:09;27.02;;;20.23;;
32228;SDS011;18717;48.034;11.186;2023-06-22T12:35:37;24.50;;;20.30;;
32228;SDS011;18717;48.034;11.186;2023-06-22T12:38:04;25.88;;;19.65;;
32228;SDS011;18717;48.034;11.186;2023-06-22T12:40:34;29.38;;;20.23;;
32228;SDS011;18717;48.034;11.186;2023-06-22T12:43:02;32.15;;;20.25;;
32228;SDS011;18717;48.034;11.186;2023-06-22T12:45:30;25.85;;;20.65;;
32228;SDS011;18717;48.034;11.186;2023-06-22T12:47:59;23.50;;;21.08;;
32228;SDS011;18717;48.034;11.186;2023-06-22T12:50:29;24.45;;;19.45;;
32228;SDS011;18717;48.034;11.186;2023-06-22T12:52:57;25.85;;;20.92;;
32228;SDS011;18717;48.034;11.186;2023-06-22T12:55:25;24.60;;;19.67;;
32228;SDS011;18717;48.034;11.186;2023-06-22T12:57:52;23.10;;;20.25;;
32228;SDS011;18717;48.034;11.186;2023-06-22T13:00:20;22.63;;;19.88;;
32228;SDS011;18717;48.034;11.186;2023-06-22T13:02:48;28.00;;;20.25;;
32228;SDS011;18717;48.034;11.186;2023-06-22T13:05:16;26.25;;;20.10;;
32228;SDS011;18717;48.034;11.186;2023-06-22T13:07:45;28.15;;;20.52;;
32228;SDS011;18717;48.034;11.186;2023-06-22T13:10:13;24.55;;;20.80;;
32228;SDS011;18717;48.034;11.186;2023-06-22T13:12:41;25.40;;;21.08;;
32228;SDS011;18717;48.034;11.186;2023-06-22T13:15:08;29.55;;;20.70;;
32228;SDS011;18717;48.034;11.186;2023-06-22T13:17:36;23.23;;;19.83;;
32228;SDS011;18717;48.034;11.186;2023-06-22T13:20:04;22.77;;;19.55;;
32228;SDS011;18717;48.034;11.186;2023-06-22T13:22:33;26.55;;;19.23;;
32228;SDS011;18717;48.034;11.186;2023-06-22T13:25:08;26.17;;;19.70;;
32228;SDS011;18717;48.034;11.186;2023-06-22T13:27:39;24.30;;;19.42;;
32228;SDS011;18717;48.034;11.186;2023-06-22T13:30:07;27.83;;;19.67;;
32228;SDS011;18717;48.034;11.186;2023-06-22T13:32:39;24.63;;;20.38;;
32228;SDS011;18717;48.034;11.186;2023-06-22T13:35:08;22.38;;;20.08;;
32228;SDS011;18717;48.034;11.186;2023-06-22T13:37:36;23.42;;;20.13;;
32228;SDS011;18717;48.034;11.186;2023-06-22T13:40:05;24.67;;;19.20;;
32228;SDS011;18717;48.034;11.186;2023-06-22T13:42:34;22.10;;;19.30;;
32228;SDS011;18717;48.034;11.186;2023-06-22T13:45:02;26.27;;;19.50;;
32228;SDS011;18717;48.034;11.186;2023-06-22T13:47:31;27.95;;;19.15;;
32228;SDS011;18717;48.034;11.186;2023-06-22T13:49:58;25.42;;;19.10;;
32228;SDS011;18717;48.034;11.186;2023-06-22T13:52:26;29.05;;;19.13;;
32228;SDS011;18717;48.034;11.186;2023-06-22T13:54:54;23.02;;;19.73;;
32228;SDS011;18717;48.034;11.186;2023-06-22T13:57:22;22.33;;;19.67;;
32228;SDS011;18717;48.034;11.186;2023-06-22T13:59:51;23.77;;;18.38;;
32228;SDS011;18717;48.034;11.186;2023-06-22T14:02:20;22.80;;;19.25;;
32228;SDS011;18717;48.034;11.186;2023-06-22T14:04:47;23.38;;;18.55;;
32228;SDS011;18717;48.034;11.186;2023-06-22T14:07:15;23.60;;;19.55;;
32228;SDS011;18717;48.034;11.186;2023-06-22T14:09:43;25.65;;;18.23;;
32228;SDS011;18717;48.034;11.186;2023-06-22T14:12:11;21.45;;;18.02;;
32228;SDS011;18717;48.034;11.186;2023-06-22T14:14:39;21.40;;;18.95;;
32228;SDS011;18717;48.034;11.186;2023-06-22T14:17:08;28.17;;;18.35;;
32228;SDS011;18717;48.034;11.186;2023-06-22T14:19:36;27.55;;;19.02;;
32228;SDS011;18717;48.034;11.186;2023-06-22T14:22:04;24.13;;;19.10;;
32228;SDS011;18717;48.034;11.186;2023-06-22T14:24:32;20.48;;;18.38;;